Fort Benton, Montana
Current Conditions -  °F | °C
As of 8:56 AM on Sunday 23 Nov 2014 (Local Time) from KGFA Reporting Station
Broken Clouds Broken Clouds  
Wind Chill: 21°   Ceiling: 8000
Heat Index: 31°   Visibility: 10mi
Dew Point: 23°   Wind: 15mph
Humidity: 70%   Direction: 230°SW
Pressure: 29.92"   Gusts: NA
Location:  47.82°N, 110.67°W
Report Text: KGFA 231556Z AUTO 23013KT 10SM BKN080 00/M05 A2992 RMK AO2 SLP161 T10041052
Loading
Personal Weather Stations






























Interactive Weather Map New forecast layout! Learn more

10-Day Weather Forecast

Advertisements
Track Severe Weather on mobile